createdAt,value
2022-11-18T00:03:44.003Z,14.4
2022-11-18T00:09:19.619Z,14.3
2022-11-18T00:14:55.694Z,14.3
2022-11-18T00:20:33.640Z,14.3
2022-11-18T00:26:10.170Z,14.3
2022-11-18T00:31:45.519Z,14.3
2022-11-18T00:37:45.296Z,14.3
2022-11-18T00:43:22.412Z,14.3
2022-11-18T00:49:21.789Z,14.3
2022-11-18T00:54:56.310Z,14.2
2022-11-18T01:00:32.764Z,14.2
2022-11-18T01:06:11.264Z,14.2
2022-11-18T01:11:47.124Z,14.1
2022-11-18T01:17:23.407Z,14.1
2022-11-18T01:23:05.191Z,14.1
2022-11-18T01:28:46.385Z,14
2022-11-18T01:34:25.486Z,14
2022-11-18T01:40:05.878Z,14
2022-11-18T01:46:04.634Z,14
2022-11-18T01:51:38.917Z,13.9
2022-11-18T01:57:15.588Z,13.8
2022-11-18T02:02:52.510Z,13.7
2022-11-18T02:08:28.438Z,13.6
2022-11-18T02:14:03.966Z,13.5
2022-11-18T02:19:39.239Z,13.4
2022-11-18T02:25:14.055Z,13.4
2022-11-18T02:30:49.574Z,13.3
2022-11-18T02:36:26.158Z,13.3
2022-11-18T02:42:01.710Z,13.3
2022-11-18T02:47:58.864Z,13.3
2022-11-18T02:53:32.593Z,13.3
2022-11-18T02:59:17.277Z,13.2
2022-11-18T03:05:04.950Z,13.2
2022-11-18T03:10:41.512Z,13.3
2022-11-18T03:16:18.361Z,13.2
2022-11-18T03:21:53.992Z,13.3
2022-11-18T03:27:29.686Z,13.3
2022-11-18T03:33:06.837Z,13.3
2022-11-18T03:38:46.313Z,13.2
2022-11-18T03:44:21.929Z,13.2
2022-11-18T03:49:57.234Z,13.2
2022-11-18T03:55:41.608Z,13.1
2022-11-18T04:01:21.921Z,13.1
2022-11-18T04:07:46.248Z,13.1
2022-11-18T04:13:34.482Z,13.1
2022-11-18T04:20:05.426Z,13.2
2022-11-18T04:25:46.360Z,13.2
2022-11-18T04:31:24.463Z,13.2
2022-11-18T04:37:00.343Z,13.2
2022-11-18T04:42:36.967Z,13.2
2022-11-18T04:48:34.150Z,13.2
2022-11-18T04:54:13.595Z,13.2
2022-11-18T04:59:49.616Z,13.2
2022-11-18T05:05:29.850Z,13.2
2022-11-18T05:11:10.388Z,13.2
2022-11-18T05:16:47.922Z,13.2
2022-11-18T05:22:24.408Z,13.2
2022-11-18T05:28:00.893Z,13.2
2022-11-18T05:33:37.628Z,13.2
2022-11-18T05:39:13.120Z,13.2
2022-11-18T05:44:53.142Z,13.2
2022-11-18T05:50:34.357Z,13.2
2022-11-18T05:56:10.657Z,13.2
2022-11-18T06:01:46.305Z,13.2
2022-11-18T06:07:23.431Z,13.2
2022-11-18T06:12:59.345Z,13.2
2022-11-18T06:18:35.206Z,13.2
2022-11-18T06:24:10.393Z,13.2
2022-11-18T06:29:46.927Z,13.1
2022-11-18T06:35:23.968Z,13.1
2022-11-18T06:41:01.278Z,13.1
2022-11-18T06:46:59.913Z,13.1
2022-11-18T06:52:34.517Z,13.1
2022-11-18T06:58:10.457Z,13
2022-11-18T07:03:49.084Z,13
2022-11-18T07:09:26.609Z,13.1
2022-11-18T07:15:04.186Z,13.1
2022-11-18T07:20:40.436Z,13
2022-11-18T07:26:16.234Z,13.1
2022-11-18T07:31:51.857Z,13.1
2022-11-18T07:37:27.966Z,13.1
2022-11-18T07:43:04.478Z,13.1
2022-11-18T07:49:02.558Z,12.6
2022-11-18T07:54:36.151Z,12.2
2022-11-18T08:00:12.137Z,12.1
2022-11-18T08:05:48.214Z,12.1
2022-11-18T08:11:47.511Z,12.3
2022-11-18T08:17:30.865Z,12.5
2022-11-18T08:23:49.332Z,12.6
2022-11-18T08:29:28.690Z,12.8
2022-11-18T08:35:10.771Z,13.1
2022-11-18T08:40:47.948Z,13.1
2022-11-18T08:46:31.696Z,13.3
2022-11-18T08:52:07.549Z,13.3
2022-11-18T08:57:47.455Z,12.8
2022-11-18T09:03:23.060Z,12.8
2022-11-18T09:09:03.439Z,13.1
2022-11-18T09:15:13.739Z,13.3
2022-11-18T09:20:56.619Z,13.5
2022-11-18T09:26:33.575Z,13.9
2022-11-18T09:32:10.558Z,14
2022-11-18T09:37:47.839Z,14.4
2022-11-18T09:43:44.658Z,14.6
2022-11-18T09:49:34.313Z,14.6
2022-11-18T09:55:10.813Z,14.5
2022-11-18T10:00:48.335Z,14.3
2022-11-18T10:06:24.212Z,14
2022-11-18T10:12:04.290Z,14
2022-11-18T10:17:47.921Z,14.1
2022-11-18T10:23:23.301Z,13.9
2022-11-18T10:29:00.216Z,13.9
2022-11-18T10:34:36.971Z,14
2022-11-18T10:40:37.232Z,14.2
2022-11-18T10:46:41.773Z,13.8
2022-11-18T10:52:19.413Z,13.4
2022-11-18T10:57:59.126Z,13.6
2022-11-18T11:05:06.213Z,13.8
2022-11-18T11:10:52.731Z,14.2
2022-11-18T11:16:33.098Z,14.9
2022-11-18T11:22:09.677Z,15.2
2022-11-18T11:33:53.098Z,14.7
2022-11-18T11:39:29.254Z,15.1
2022-11-18T11:45:04.657Z,15.5
2022-11-18T11:51:04.635Z,15.5
2022-11-18T11:56:40.392Z,15.1
2022-11-18T12:02:15.687Z,15.3
2022-11-18T12:07:53.132Z,15.8
2022-11-18T12:13:32.088Z,15.5
2022-11-18T12:19:09.970Z,15.2
2022-11-18T12:24:48.190Z,15.1
2022-11-18T12:30:44.093Z,14.9
2022-11-18T12:36:22.224Z,15.2
2022-11-18T12:41:57.792Z,14.9
2022-11-18T12:47:33.439Z,15
2022-11-18T12:53:08.528Z,15.5
2022-11-18T12:58:45.003Z,15
2022-11-18T13:04:20.472Z,14.7
2022-11-18T13:09:55.941Z,14.8
2022-11-18T13:15:31.104Z,14.8
2022-11-18T13:21:08.211Z,14.2
2022-11-18T13:26:48.310Z,13.9
2022-11-18T13:32:36.422Z,13.8
2022-11-18T13:38:12.209Z,13.8
2022-11-18T13:43:53.813Z,13.8
2022-11-18T13:49:35.391Z,13.8
2022-11-18T13:55:12.593Z,13.7
2022-11-18T14:00:47.809Z,13.3
2022-11-18T14:06:23.804Z,13.2
2022-11-18T14:12:07.308Z,13
2022-11-18T14:17:42.695Z,12.9
2022-11-18T14:23:17.630Z,12.8
2022-11-18T14:28:53.759Z,12.6
2022-11-18T14:34:29.885Z,12.4
2022-11-18T14:40:05.199Z,12.4
2022-11-18T14:45:40.396Z,12.3
2022-11-18T14:51:22.125Z,12.5
2022-11-18T14:57:30.827Z,12.5
2022-11-18T15:03:07.064Z,12.6
2022-11-18T15:08:52.593Z,12.5
2022-11-18T15:14:28.904Z,12.5
2022-11-18T15:20:03.843Z,12.5
2022-11-18T15:25:41.938Z,12.4
2022-11-18T15:31:20.217Z,12.3
2022-11-18T15:36:58.173Z,12
2022-11-18T15:42:38.103Z,12
2022-11-18T15:48:27.136Z,11.8
2022-11-18T15:54:02.358Z,11.6
2022-11-18T15:59:41.663Z,11.3
2022-11-18T16:05:17.479Z,11.2
2022-11-18T16:10:52.526Z,11.1
2022-11-18T16:16:27.934Z,10.8
2022-11-18T16:22:16.106Z,10.7
2022-11-18T16:27:51.064Z,10.7
2022-11-18T16:33:26.573Z,10.6
2022-11-18T16:39:02.162Z,10.5
2022-11-18T16:44:37.148Z,10.4
2022-11-18T16:50:12.214Z,10.4
2022-11-18T16:55:47.408Z,10.5
2022-11-18T17:01:26.279Z,10.4
2022-11-18T17:07:11.723Z,10.4
2022-11-18T17:12:48.025Z,10.3
2022-11-18T17:18:23.321Z,10.3
2022-11-18T17:23:58.535Z,10.2
2022-11-18T17:29:34.142Z,10.2
2022-11-18T17:35:09.226Z,10.2
2022-11-18T17:40:44.827Z,10.1
2022-11-18T17:46:22.811Z,10.9
2022-11-18T17:52:02.493Z,11.3
2022-11-18T17:57:41.153Z,11.5
2022-11-18T18:03:18.916Z,11.6
2022-11-18T18:08:53.863Z,11.7
2022-11-18T18:14:28.747Z,11.8
2022-11-18T18:20:03.980Z,11.8
2022-11-18T18:25:41.384Z,11.8
2022-11-18T18:31:17.126Z,11.8
2022-11-18T18:36:52.076Z,11.9
2022-11-18T18:42:28.184Z,11.9
2022-11-18T18:48:03.960Z,12
2022-11-18T18:53:43.429Z,12
2022-11-18T18:59:18.545Z,12
2022-11-18T19:05:08.920Z,12.1
2022-11-18T19:10:43.816Z,12.1
2022-11-18T19:16:28.132Z,12.2
2022-11-18T19:22:03.390Z,12.2
2022-11-18T19:27:38.434Z,12.2
2022-11-18T19:33:14.408Z,12.2
2022-11-18T19:38:52.703Z,12.2
2022-11-18T19:44:29.037Z,12.2
2022-11-18T19:50:04.649Z,12.2
2022-11-18T19:55:49.092Z,12.2
2022-11-18T20:01:25.661Z,12.2
2022-11-18T20:07:02.093Z,12.1
2022-11-18T20:13:01.658Z,12.1
2022-11-18T20:18:48.499Z,12.1
2022-11-18T20:24:25.067Z,12.2
2022-11-18T20:30:03.120Z,12.1
2022-11-18T20:35:38.868Z,12.1
2022-11-18T20:41:15.732Z,12
2022-11-18T20:46:52.903Z,12
2022-11-18T20:52:32.612Z,12.1
2022-11-18T20:58:09.828Z,12.1
2022-11-18T21:03:45.992Z,12.1
2022-11-18T21:09:32.279Z,12.1
2022-11-18T21:15:23.508Z,12.1
2022-11-18T21:21:00.457Z,12.1
2022-11-18T21:26:48.619Z,12.1
2022-11-18T21:32:34.884Z,12.1
2022-11-18T21:38:10.947Z,12.1
2022-11-18T21:44:06.427Z,12.1
2022-11-18T21:49:49.867Z,12
2022-11-18T21:55:26.114Z,12
2022-11-18T22:01:03.396Z,12
2022-11-18T22:06:41.222Z,12
2022-11-18T22:12:17.143Z,12
2022-11-18T22:17:52.371Z,12
2022-11-18T22:23:35.340Z,12
2022-11-18T22:29:33.996Z,12
2022-11-18T22:35:09.560Z,12
2022-11-18T22:40:54.486Z,12
2022-11-18T22:46:30.398Z,12
2022-11-18T22:52:05.352Z,12
2022-11-18T22:57:40.393Z,12
2022-11-18T23:03:15.754Z,12
2022-11-18T23:08:50.899Z,12
2022-11-18T23:14:25.628Z,12
2022-11-18T23:20:01.539Z,12
2022-11-18T23:25:36.718Z,12
2022-11-18T23:31:11.544Z,12
2022-11-18T23:36:47.368Z,12
2022-11-18T23:42:31.206Z,11.9
2022-11-18T23:48:06.546Z,11.9
2022-11-18T23:53:47.853Z,11.9
2022-11-18T23:59:23.268Z,11.9
